sensor_id;sensor_type;location;lat;lon;timestamp;P1;P2;P0
84223;PMS5003;74353;51.208;0.304;2024-03-22T00:01:30;9;9;
84223;PMS5003;74353;51.208;0.304;2024-03-22T00:03:56;13;13;
84223;PMS5003;74353;51.208;0.304;2024-03-22T00:06:23;14;14;
84223;PMS5003;74353;51.208;0.304;2024-03-22T00:08:48;15;15;
84223;PMS5003;74353;51.208;0.304;2024-03-22T00:11:14;14;14;
84223;PMS5003;74353;51.208;0.304;2024-03-22T00:13:39;12;12;
84223;PMS5003;74353;51.208;0.304;2024-03-22T00:16:05;14;9;
84223;PMS5003;74353;51.208;0.304;2024-03-22T00:18:30;12;12;
84223;PMS5003;74353;51.208;0.304;2024-03-22T00:20:55;17;17;
84223;PMS5003;74353;51.208;0.304;2024-03-22T00:23:20;13;13;
84223;PMS5003;74353;51.208;0.304;2024-03-22T00:25:47;11;11;
84223;PMS5003;74353;51.208;0.304;2024-03-22T00:28:14;18;18;
84223;PMS5003;74353;51.208;0.304;2024-03-22T00:30:40;15;15;
84223;PMS5003;74353;51.208;0.304;2024-03-22T00:33:06;18;18;
84223;PMS5003;74353;51.208;0.304;2024-03-22T00:35:31;13;13;
84223;PMS5003;74353;51.208;0.304;2024-03-22T00:37:56;13;10;
84223;PMS5003;74353;51.208;0.304;2024-03-22T00:40:22;15;14;
84223;PMS5003;74353;51.208;0.304;2024-03-22T00:42:47;14;14;
84223;PMS5003;74353;51.208;0.304;2024-03-22T00:45:12;13;13;
84223;PMS5003;74353;51.208;0.304;2024-03-22T00:47:38;17;17;
84223;PMS5003;74353;51.208;0.304;2024-03-22T00:50:04;13;13;
84223;PMS5003;74353;51.208;0.304;2024-03-22T00:52:31;8;8;
84223;PMS5003;74353;51.208;0.304;2024-03-22T00:54:56;22;22;
84223;PMS5003;74353;51.208;0.304;2024-03-22T00:57:23;10;10;
84223;PMS5003;74353;51.208;0.304;2024-03-22T00:59:50;11;11;
84223;PMS5003;74353;51.208;0.304;2024-03-22T01:02:16;11;11;
84223;PMS5003;74353;51.208;0.304;2024-03-22T01:04:44;12;12;
84223;PMS5003;74353;51.208;0.304;2024-03-22T01:07:10;12;12;
84223;PMS5003;74353;51.208;0.304;2024-03-22T01:09:35;18;18;
84223;PMS5003;74353;51.208;0.304;2024-03-22T01:12:01;19;19;
84223;PMS5003;74353;51.208;0.304;2024-03-22T01:14:26;19;19;
84223;PMS5003;74353;51.208;0.304;2024-03-22T01:16:52;12;12;
84223;PMS5003;74353;51.208;0.304;2024-03-22T01:19:18;10;10;
84223;PMS5003;74353;51.208;0.304;2024-03-22T01:21:43;19;19;
84223;PMS5003;74353;51.208;0.304;2024-03-22T01:24:09;23;20;
84223;PMS5003;74353;51.208;0.304;2024-03-22T01:26:34;11;11;
84223;PMS5003;74353;51.208;0.304;2024-03-22T01:28:59;18;15;
84223;PMS5003;74353;51.208;0.304;2024-03-22T01:31:25;12;12;
84223;PMS5003;74353;51.208;0.304;2024-03-22T01:33:51;22;10;
84223;PMS5003;74353;51.208;0.304;2024-03-22T01:36:21;10;10;
84223;PMS5003;74353;51.208;0.304;2024-03-22T01:38:47;14;14;
84223;PMS5003;74353;51.208;0.304;2024-03-22T01:41:15;7;7;
84223;PMS5003;74353;51.208;0.304;2024-03-22T01:43:43;17;11;
84223;PMS5003;74353;51.208;0.304;2024-03-22T01:46:08;16;14;
84223;PMS5003;74353;51.208;0.304;2024-03-22T01:48:36;14;14;
84223;PMS5003;74353;51.208;0.304;2024-03-22T01:51:02;17;17;
84223;PMS5003;74353;51.208;0.304;2024-03-22T01:53:30;10;10;
84223;PMS5003;74353;51.208;0.304;2024-03-22T01:55:56;16;16;
84223;PMS5003;74353;51.208;0.304;2024-03-22T01:58:22;16;16;
84223;PMS5003;74353;51.208;0.304;2024-03-22T02:00:50;9;9;
84223;PMS5003;74353;51.208;0.304;2024-03-22T02:03:17;21;21;
84223;PMS5003;74353;51.208;0.304;2024-03-22T02:05:43;19;19;
84223;PMS5003;74353;51.208;0.304;2024-03-22T02:08:10;4;4;
84223;PMS5003;74353;51.208;0.304;2024-03-22T02:10:42;12;12;
84223;PMS5003;74353;51.208;0.304;2024-03-22T02:13:03;12;12;
84223;PMS5003;74353;51.208;0.304;2024-03-22T02:15:30;22;22;
84223;PMS5003;74353;51.208;0.304;2024-03-22T02:17:56;13;13;
84223;PMS5003;74353;51.208;0.304;2024-03-22T02:20:22;13;13;
84223;PMS5003;74353;51.208;0.304;2024-03-22T02:22:48;15;15;
84223;PMS5003;74353;51.208;0.304;2024-03-22T02:25:15;19;19;
84223;PMS5003;74353;51.208;0.304;2024-03-22T02:27:40;15;15;
84223;PMS5003;74353;51.208;0.304;2024-03-22T02:30:07;7;7;
84223;PMS5003;74353;51.208;0.304;2024-03-22T02:32:32;11;11;
84223;PMS5003;74353;51.208;0.304;2024-03-22T02:34:59;20;20;
84223;PMS5003;74353;51.208;0.304;2024-03-22T02:37:27;15;15;
84223;PMS5003;74353;51.208;0.304;2024-03-22T02:39:53;17;17;
84223;PMS5003;74353;51.208;0.304;2024-03-22T02:42:20;17;13;
84223;PMS5003;74353;51.208;0.304;2024-03-22T02:44:46;15;15;
84223;PMS5003;74353;51.208;0.304;2024-03-22T02:47:12;14;14;
84223;PMS5003;74353;51.208;0.304;2024-03-22T02:49:38;20;20;
84223;PMS5003;74353;51.208;0.304;2024-03-22T02:52:06;13;13;
84223;PMS5003;74353;51.208;0.304;2024-03-22T02:54:31;19;13;
84223;PMS5003;74353;51.208;0.304;2024-03-22T02:56:57;22;22;
84223;PMS5003;74353;51.208;0.304;2024-03-22T02:59:25;18;18;
84223;PMS5003;74353;51.208;0.304;2024-03-22T03:01:47;13;13;
84223;PMS5003;74353;51.208;0.304;2024-03-22T03:04:15;19;13;
84223;PMS5003;74353;51.208;0.304;2024-03-22T03:06:40;13;13;
84223;PMS5003;74353;51.208;0.304;2024-03-22T03:09:06;27;20;
84223;PMS5003;74353;51.208;0.304;2024-03-22T03:11:32;14;14;
84223;PMS5003;74353;51.208;0.304;2024-03-22T03:13:58;23;22;
84223;PMS5003;74353;51.208;0.304;2024-03-22T03:16:23;18;17;
84223;PMS5003;74353;51.208;0.304;2024-03-22T03:18:49;13;13;
84223;PMS5003;74353;51.208;0.304;2024-03-22T03:21:16;21;9;
84223;PMS5003;74353;51.208;0.304;2024-03-22T03:23:42;12;12;
84223;PMS5003;74353;51.208;0.304;2024-03-22T03:26:08;19;19;
84223;PMS5003;74353;51.208;0.304;2024-03-22T03:28:34;16;16;
84223;PMS5003;74353;51.208;0.304;2024-03-22T03:31:06;17;17;
84223;PMS5003;74353;51.208;0.304;2024-03-22T03:33:42;26;25;
84223;PMS5003;74353;51.208;0.304;2024-03-22T03:35:58;18;18;
84223;PMS5003;74353;51.208;0.304;2024-03-22T03:38:23;24;23;
84223;PMS5003;74353;51.208;0.304;2024-03-22T03:40:48;6;6;
84223;PMS5003;74353;51.208;0.304;2024-03-22T03:43:15;11;11;
84223;PMS5003;74353;51.208;0.304;2024-03-22T03:45:40;12;12;
84223;PMS5003;74353;51.208;0.304;2024-03-22T03:48:06;13;13;
84223;PMS5003;74353;51.208;0.304;2024-03-22T03:50:31;13;13;
84223;PMS5003;74353;51.208;0.304;2024-03-22T03:52:56;23;21;
84223;PMS5003;74353;51.208;0.304;2024-03-22T03:55:21;15;15;
84223;PMS5003;74353;51.208;0.304;2024-03-22T03:57:46;25;24;
84223;PMS5003;74353;51.208;0.304;2024-03-22T04:00:14;14;14;
84223;PMS5003;74353;51.208;0.304;2024-03-22T04:02:40;21;21;
84223;PMS5003;74353;51.208;0.304;2024-03-22T04:05:08;22;12;
84223;PMS5003;74353;51.208;0.304;2024-03-22T04:07:33;22;16;
84223;PMS5003;74353;51.208;0.304;2024-03-22T04:09:58;13;13;
84223;PMS5003;74353;51.208;0.304;2024-03-22T04:12:24;25;22;
84223;PMS5003;74353;51.208;0.304;2024-03-22T04:14:49;27;23;
84223;PMS5003;74353;51.208;0.304;2024-03-22T04:17:17;27;20;
84223;PMS5003;74353;51.208;0.304;2024-03-22T04:19:43;14;14;
84223;PMS5003;74353;51.208;0.304;2024-03-22T04:22:10;14;14;
84223;PMS5003;74353;51.208;0.304;2024-03-22T04:24:37;19;19;
84223;PMS5003;74353;51.208;0.304;2024-03-22T04:27:03;18;18;
84223;PMS5003;74353;51.208;0.304;2024-03-22T04:29:28;17;15;
84223;PMS5003;74353;51.208;0.304;2024-03-22T04:31:53;17;17;
84223;PMS5003;74353;51.208;0.304;2024-03-22T04:34:18;11;11;
84223;PMS5003;74353;51.208;0.304;2024-03-22T04:36:45;10;10;
84223;PMS5003;74353;51.208;0.304;2024-03-22T04:39:10;13;13;
84223;PMS5003;74353;51.208;0.304;2024-03-22T04:41:37;13;13;
84223;PMS5003;74353;51.208;0.304;2024-03-22T04:44:06;6;6;
84223;PMS5003;74353;51.208;0.304;2024-03-22T04:46:33;18;18;
84223;PMS5003;74353;51.208;0.304;2024-03-22T04:48:59;8;8;
84223;PMS5003;74353;51.208;0.304;2024-03-22T04:51:26;5;5;
84223;PMS5003;74353;51.208;0.304;2024-03-22T04:53:53;11;11;
84223;PMS5003;74353;51.208;0.304;2024-03-22T04:56:18;18;14;
84223;PMS5003;74353;51.208;0.304;2024-03-22T04:58:44;20;16;
84223;PMS5003;74353;51.208;0.304;2024-03-22T05:01:10;15;15;
84223;PMS5003;74353;51.208;0.304;2024-03-22T05:03:37;10;10;
84223;PMS5003;74353;51.208;0.304;2024-03-22T05:06:03;9;9;
84223;PMS5003;74353;51.208;0.304;2024-03-22T05:08:29;12;12;
84223;PMS5003;74353;51.208;0.304;2024-03-22T05:10:55;10;10;
84223;PMS5003;74353;51.208;0.304;2024-03-22T05:13:20;9;9;
84223;PMS5003;74353;51.208;0.304;2024-03-22T05:15:46;15;14;
84223;PMS5003;74353;51.208;0.304;2024-03-22T05:18:14;10;7;
84223;PMS5003;74353;51.208;0.304;2024-03-22T05:20:39;11;11;
84223;PMS5003;74353;51.208;0.304;2024-03-22T05:23:05;7;7;
84223;PMS5003;74353;51.208;0.304;2024-03-22T05:25:30;9;9;
84223;PMS5003;74353;51.208;0.304;2024-03-22T05:27:56;6;6;
84223;PMS5003;74353;51.208;0.304;2024-03-22T05:30:23;17;17;
84223;PMS5003;74353;51.208;0.304;2024-03-22T05:32:49;5;5;
84223;PMS5003;74353;51.208;0.304;2024-03-22T05:35:17;6;6;
84223;PMS5003;74353;51.208;0.304;2024-03-22T05:37:43;9;9;
84223;PMS5003;74353;51.208;0.304;2024-03-22T05:40:09;11;11;
84223;PMS5003;74353;51.208;0.304;2024-03-22T05:42:35;7;7;
84223;PMS5003;74353;51.208;0.304;2024-03-22T05:45:02;8;8;
84223;PMS5003;74353;51.208;0.304;2024-03-22T05:47:28;10;10;
84223;PMS5003;74353;51.208;0.304;2024-03-22T05:49:55;11;11;
84223;PMS5003;74353;51.208;0.304;2024-03-22T05:52:20;10;10;
84223;PMS5003;74353;51.208;0.304;2024-03-22T05:54:46;9;9;
84223;PMS5003;74353;51.208;0.304;2024-03-22T05:57:17;13;8;
84223;PMS5003;74353;51.208;0.304;2024-03-22T05:59:39;0;0;
84223;PMS5003;74353;51.208;0.304;2024-03-22T06:02:05;5;5;
84223;PMS5003;74353;51.208;0.304;2024-03-22T06:04:30;5;5;
84223;PMS5003;74353;51.208;0.304;2024-03-22T06:06:57;5;5;
84223;PMS5003;74353;51.208;0.304;2024-03-22T06:09:23;7;7;
84223;PMS5003;74353;51.208;0.304;2024-03-22T06:11:48;5;5;
84223;PMS5003;74353;51.208;0.304;2024-03-22T06:14:14;14;14;
84223;PMS5003;74353;51.208;0.304;2024-03-22T06:16:41;3;3;
84223;PMS5003;74353;51.208;0.304;2024-03-22T06:19:08;6;6;
84223;PMS5003;74353;51.208;0.304;2024-03-22T06:21:34;8;8;
84223;PMS5003;74353;51.208;0.304;2024-03-22T06:24:02;8;6;
84223;PMS5003;74353;51.208;0.304;2024-03-22T06:26:27;17;9;
84223;PMS5003;74353;51.208;0.304;2024-03-22T06:28:54;3;3;
84223;PMS5003;74353;51.208;0.304;2024-03-22T06:31:21;3;3;
84223;PMS5003;74353;51.208;0.304;2024-03-22T06:33:47;1;1;
84223;PMS5003;74353;51.208;0.304;2024-03-22T06:36:13;8;8;
84223;PMS5003;74353;51.208;0.304;2024-03-22T06:38:39;6;6;
84223;PMS5003;74353;51.208;0.304;2024-03-22T06:41:05;6;6;
84223;PMS5003;74353;51.208;0.304;2024-03-22T06:43:30;13;8;
84223;PMS5003;74353;51.208;0.304;2024-03-22T06:45:55;6;6;
84223;PMS5003;74353;51.208;0.304;2024-03-22T06:48:21;6;6;
84223;PMS5003;74353;51.208;0.304;2024-03-22T06:50:47;3;3;
84223;PMS5003;74353;51.208;0.304;2024-03-22T06:53:15;3;3;
84223;PMS5003;74353;51.208;0.304;2024-03-22T06:55:41;9;5;
84223;PMS5003;74353;51.208;0.304;2024-03-22T06:58:08;3;3;
84223;PMS5003;74353;51.208;0.304;2024-03-22T07:00:33;7;3;
84223;PMS5003;74353;51.208;0.304;2024-03-22T07:03:03;2;2;
84223;PMS5003;74353;51.208;0.304;2024-03-22T07:05:28;2;2;
84223;PMS5003;74353;51.208;0.304;2024-03-22T07:07:53;6;6;
84223;PMS5003;74353;51.208;0.304;2024-03-22T07:10:21;2;2;
84223;PMS5003;74353;51.208;0.304;2024-03-22T07:12:46;4;4;
84223;PMS5003;74353;51.208;0.304;2024-03-22T07:15:12;5;5;
84223;PMS5003;74353;51.208;0.304;2024-03-22T07:17:37;5;5;
84223;PMS5003;74353;51.208;0.304;2024-03-22T07:20:07;14;6;
84223;PMS5003;74353;51.208;0.304;2024-03-22T07:22:32;3;3;
84223;PMS5003;74353;51.208;0.304;2024-03-22T07:25:01;4;4;
84223;PMS5003;74353;51.208;0.304;2024-03-22T07:27:27;4;4;
84223;PMS5003;74353;51.208;0.304;2024-03-22T07:29:52;4;4;
84223;PMS5003;74353;51.208;0.304;2024-03-22T07:32:18;3;3;
84223;PMS5003;74353;51.208;0.304;2024-03-22T07:34:45;5;5;
84223;PMS5003;74353;51.208;0.304;2024-03-22T07:37:11;6;6;
84223;PMS5003;74353;51.208;0.304;2024-03-22T07:39:36;9;9;
84223;PMS5003;74353;51.208;0.304;2024-03-22T07:42:02;5;5;
84223;PMS5003;74353;51.208;0.304;2024-03-22T07:44:27;3;3;
84223;PMS5003;74353;51.208;0.304;2024-03-22T07:46:53;7;7;
84223;PMS5003;74353;51.208;0.304;2024-03-22T07:49:19;11;3;
84223;PMS5003;74353;51.208;0.304;2024-03-22T07:51:45;8;8;
84223;PMS5003;74353;51.208;0.304;2024-03-22T07:54:11;2;2;
84223;PMS5003;74353;51.208;0.304;2024-03-22T07:56:36;4;4;
84223;PMS5003;74353;51.208;0.304;2024-03-22T07:59:03;4;4;
84223;PMS5003;74353;51.208;0.304;2024-03-22T08:01:29;3;3;
84223;PMS5003;74353;51.208;0.304;2024-03-22T08:03:54;6;6;
84223;PMS5003;74353;51.208;0.304;2024-03-22T08:06:22;3;3;
84223;PMS5003;74353;51.208;0.304;2024-03-22T08:08:49;3;3;
84223;PMS5003;74353;51.208;0.304;2024-03-22T08:11:14;4;4;
84223;PMS5003;74353;51.208;0.304;2024-03-22T08:13:40;6;6;
84223;PMS5003;74353;51.208;0.304;2024-03-22T08:16:08;11;5;
84223;PMS5003;74353;51.208;0.304;2024-03-22T08:18:33;5;5;
84223;PMS5003;74353;51.208;0.304;2024-03-22T08:20:59;14;5;
84223;PMS5003;74353;51.208;0.304;2024-03-22T08:23:25;5;5;
84223;PMS5003;74353;51.208;0.304;2024-03-22T08:25:51;3;3;
84223;PMS5003;74353;51.208;0.304;2024-03-22T08:28:19;14;8;
84223;PMS5003;74353;51.208;0.304;2024-03-22T08:30:45;8;8;
84223;PMS5003;74353;51.208;0.304;2024-03-22T08:33:13;4;4;
84223;PMS5003;74353;51.208;0.304;2024-03-22T08:35:38;6;6;
84223;PMS5003;74353;51.208;0.304;2024-03-22T08:38:05;3;3;
84223;PMS5003;74353;51.208;0.304;2024-03-22T08:40:30;7;7;
84223;PMS5003;74353;51.208;0.304;2024-03-22T08:42:57;4;4;
84223;PMS5003;74353;51.208;0.304;2024-03-22T08:45:24;5;5;
84223;PMS5003;74353;51.208;0.304;2024-03-22T08:47:50;10;8;
84223;PMS5003;74353;51.208;0.304;2024-03-22T08:50:16;7;7;
84223;PMS5003;74353;51.208;0.304;2024-03-22T08:52:41;7;7;
84223;PMS5003;74353;51.208;0.304;2024-03-22T08:55:08;7;7;
84223;PMS5003;74353;51.208;0.304;2024-03-22T08:57:33;6;6;
84223;PMS5003;74353;51.208;0.304;2024-03-22T08:59:59;6;6;
84223;PMS5003;74353;51.208;0.304;2024-03-22T09:02:26;5;5;
84223;PMS5003;74353;51.208;0.304;2024-03-22T09:04:53;10;3;
84223;PMS5003;74353;51.208;0.304;2024-03-22T09:07:21;7;7;
84223;PMS5003;74353;51.208;0.304;2024-03-22T09:09:47;10;10;
84223;PMS5003;74353;51.208;0.304;2024-03-22T09:12:13;8;8;
84223;PMS5003;74353;51.208;0.304;2024-03-22T09:14:39;2;2;
84223;PMS5003;74353;51.208;0.304;2024-03-22T09:17:06;5;5;
84223;PMS5003;74353;51.208;0.304;2024-03-22T09:19:33;11;11;
84223;PMS5003;74353;51.208;0.304;2024-03-22T09:21:59;11;9;
84223;PMS5003;74353;51.208;0.304;2024-03-22T09:24:24;10;9;
84223;PMS5003;74353;51.208;0.304;2024-03-22T09:26:51;9;9;
84223;PMS5003;74353;51.208;0.304;2024-03-22T09:29:17;8;7;
84223;PMS5003;74353;51.208;0.304;2024-03-22T09:31:42;3;3;
84223;PMS5003;74353;51.208;0.304;2024-03-22T09:34:11;5;5;
84223;PMS5003;74353;51.208;0.304;2024-03-22T09:36:35;12;11;
84223;PMS5003;74353;51.208;0.304;2024-03-22T09:39:02;10;10;
84223;PMS5003;74353;51.208;0.304;2024-03-22T09:41:27;9;9;
84223;PMS5003;74353;51.208;0.304;2024-03-22T09:43:52;12;12;
84223;PMS5003;74353;51.208;0.304;2024-03-22T09:46:17;4;4;
84223;PMS5003;74353;51.208;0.304;2024-03-22T09:48:42;6;6;
84223;PMS5003;74353;51.208;0.304;2024-03-22T09:51:10;11;11;
84223;PMS5003;74353;51.208;0.304;2024-03-22T09:53:38;12;12;
84223;PMS5003;74353;51.208;0.304;2024-03-22T09:56:06;11;11;
84223;PMS5003;74353;51.208;0.304;2024-03-22T09:58:32;14;6;
84223;PMS5003;74353;51.208;0.304;2024-03-22T10:01:01;13;13;
84223;PMS5003;74353;51.208;0.304;2024-03-22T10:03:28;6;6;
84223;PMS5003;74353;51.208;0.304;2024-03-22T10:05:54;13;9;
84223;PMS5003;74353;51.208;0.304;2024-03-22T10:08:20;8;8;
84223;PMS5003;74353;51.208;0.304;2024-03-22T10:10:48;8;8;
84223;PMS5003;74353;51.208;0.304;2024-03-22T10:13:14;8;8;
84223;PMS5003;74353;51.208;0.304;2024-03-22T10:15:40;10;10;
84223;PMS5003;74353;51.208;0.304;2024-03-22T10:18:09;5;5;
84223;PMS5003;74353;51.208;0.304;2024-03-22T10:20:34;4;4;
84223;PMS5003;74353;51.208;0.304;2024-03-22T10:22:59;9;9;
84223;PMS5003;74353;51.208;0.304;2024-03-22T10:25:25;13;11;
84223;PMS5003;74353;51.208;0.304;2024-03-22T10:27:53;11;11;
84223;PMS5003;74353;51.208;0.304;2024-03-22T10:30:18;25;18;
84223;PMS5003;74353;51.208;0.304;2024-03-22T10:32:44;7;7;
84223;PMS5003;74353;51.208;0.304;2024-03-22T10:35:11;10;10;
84223;PMS5003;74353;51.208;0.304;2024-03-22T10:37:36;7;7;
84223;PMS5003;74353;51.208;0.304;2024-03-22T10:40:02;6;6;
84223;PMS5003;74353;51.208;0.304;2024-03-22T10:42:27;14;14;
84223;PMS5003;74353;51.208;0.304;2024-03-22T10:44:56;6;6;
84223;PMS5003;74353;51.208;0.304;2024-03-22T10:47:21;4;4;
84223;PMS5003;74353;51.208;0.304;2024-03-22T10:49:47;10;10;
84223;PMS5003;74353;51.208;0.304;2024-03-22T10:52:12;13;10;
84223;PMS5003;74353;51.208;0.304;2024-03-22T10:54:40;3;3;
84223;PMS5003;74353;51.208;0.304;2024-03-22T10:57:10;3;3;
84223;PMS5003;74353;51.208;0.304;2024-03-22T10:59:33;12;12;
84223;PMS5003;74353;51.208;0.304;2024-03-22T11:02:02;11;8;
84223;PMS5003;74353;51.208;0.304;2024-03-22T11:04:29;9;9;
84223;PMS5003;74353;51.208;0.304;2024-03-22T11:06:51;17;13;
84223;PMS5003;74353;51.208;0.304;2024-03-22T11:09:20;3;3;
84223;PMS5003;74353;51.208;0.304;2024-03-22T11:11:44;8;8;
84223;PMS5003;74353;51.208;0.304;2024-03-22T11:14:12;5;5;
84223;PMS5003;74353;51.208;0.304;2024-03-22T11:16:42;14;14;
84223;PMS5003;74353;51.208;0.304;2024-03-22T11:19:07;2;2;
84223;PMS5003;74353;51.208;0.304;2024-03-22T11:21:34;13;13;
84223;PMS5003;74353;51.208;0.304;2024-03-22T11:24:02;8;8;
84223;PMS5003;74353;51.208;0.304;2024-03-22T11:26:28;7;7;
84223;PMS5003;74353;51.208;0.304;2024-03-22T11:28:54;6;6;
84223;PMS5003;74353;51.208;0.304;2024-03-22T11:31:21;7;7;
84223;PMS5003;74353;51.208;0.304;2024-03-22T11:33:46;6;6;
84223;PMS5003;74353;51.208;0.304;2024-03-22T11:36:12;8;8;
84223;PMS5003;74353;51.208;0.304;2024-03-22T11:38:39;6;6;
84223;PMS5003;74353;51.208;0.304;2024-03-22T11:41:06;3;3;
84223;PMS5003;74353;51.208;0.304;2024-03-22T11:43:31;5;5;
84223;PMS5003;74353;51.208;0.304;2024-03-22T11:46:00;7;7;
84223;PMS5003;74353;51.208;0.304;2024-03-22T11:48:26;12;7;
84223;PMS5003;74353;51.208;0.304;2024-03-22T11:50:52;7;7;
84223;PMS5003;74353;51.208;0.304;2024-03-22T11:53:18;9;9;
84223;PMS5003;74353;51.208;0.304;2024-03-22T11:55:44;6;6;
84223;PMS5003;74353;51.208;0.304;2024-03-22T11:58:12;4;4;
84223;PMS5003;74353;51.208;0.304;2024-03-22T12:00:38;10;10;
84223;PMS5003;74353;51.208;0.304;2024-03-22T12:03:04;4;4;
84223;PMS5003;74353;51.208;0.304;2024-03-22T12:05:29;9;9;
84223;PMS5003;74353;51.208;0.304;2024-03-22T12:07:54;5;5;
84223;PMS5003;74353;51.208;0.304;2024-03-22T12:10:20;5;5;
84223;PMS5003;74353;51.208;0.304;2024-03-22T12:12:45;7;7;
84223;PMS5003;74353;51.208;0.304;2024-03-22T12:15:13;5;5;
84223;PMS5003;74353;51.208;0.304;2024-03-22T12:17:38;4;4;
84223;PMS5003;74353;51.208;0.304;2024-03-22T12:20:03;7;7;
84223;PMS5003;74353;51.208;0.304;2024-03-22T12:22:28;9;3;
84223;PMS5003;74353;51.208;0.304;2024-03-22T12:24:53;9;9;
84223;PMS5003;74353;51.208;0.304;2024-03-22T12:27:19;8;5;
84223;PMS5003;74353;51.208;0.304;2024-03-22T12:29:44;8;4;
84223;PMS5003;74353;51.208;0.304;2024-03-22T12:32:13;5;5;
84223;PMS5003;74353;51.208;0.304;2024-03-22T12:34:38;6;5;
84223;PMS5003;74353;51.208;0.304;2024-03-22T12:37:03;7;5;
84223;PMS5003;74353;51.208;0.304;2024-03-22T12:39:31;8;8;
84223;PMS5003;74353;51.208;0.304;2024-03-22T12:41:57;6;6;
84223;PMS5003;74353;51.208;0.304;2024-03-22T12:44:23;4;4;
84223;PMS5003;74353;51.208;0.304;2024-03-22T12:46:49;1;1;
84223;PMS5003;74353;51.208;0.304;2024-03-22T12:49:14;3;1;
84223;PMS5003;74353;51.208;0.304;2024-03-22T12:51:40;3;3;
84223;PMS5003;74353;51.208;0.304;2024-03-22T12:54:06;2;2;
84223;PMS5003;74353;51.208;0.304;2024-03-22T12:56:32;9;2;
84223;PMS5003;74353;51.208;0.304;2024-03-22T12:58:58;4;4;
84223;PMS5003;74353;51.208;0.304;2024-03-22T13:01:25;2;2;
84223;PMS5003;74353;51.208;0.304;2024-03-22T13:03:51;1;1;
84223;PMS5003;74353;51.208;0.304;2024-03-22T13:06:16;2;2;
84223;PMS5003;74353;51.208;0.304;2024-03-22T13:08:42;7;7;
84223;PMS5003;74353;51.208;0.304;2024-03-22T13:11:08;2;2;
84223;PMS5003;74353;51.208;0.304;2024-03-22T13:13:33;4;1;
84223;PMS5003;74353;51.208;0.304;2024-03-22T13:16:04;5;5;
84223;PMS5003;74353;51.208;0.304;2024-03-22T13:18:28;17;17;
84223;PMS5003;74353;51.208;0.304;2024-03-22T13:20:56;9;9;
84223;PMS5003;74353;51.208;0.304;2024-03-22T13:23:22;2;1;
84223;PMS5003;74353;51.208;0.304;2024-03-22T13:25:49;0;0;
84223;PMS5003;74353;51.208;0.304;2024-03-22T13:28:15;5;5;
84223;PMS5003;74353;51.208;0.304;2024-03-22T13:30:42;5;5;
84223;PMS5003;74353;51.208;0.304;2024-03-22T13:33:08;2;2;
84223;PMS5003;74353;51.208;0.304;2024-03-22T13:35:33;9;3;
84223;PMS5003;74353;51.208;0.304;2024-03-22T13:37:59;10;4;
84223;PMS5003;74353;51.208;0.304;2024-03-22T13:40:27;2;2;
84223;PMS5003;74353;51.208;0.304;2024-03-22T13:42:53;2;2;
84223;PMS5003;74353;51.208;0.304;2024-03-22T13:45:19;0;0;
84223;PMS5003;74353;51.208;0.304;2024-03-22T13:47:44;0;0;
84223;PMS5003;74353;51.208;0.304;2024-03-22T13:50:10;4;3;
84223;PMS5003;74353;51.208;0.304;2024-03-22T13:52:36;0;0;
84223;PMS5003;74353;51.208;0.304;2024-03-22T13:55:03;4;4;
84223;PMS5003;74353;51.208;0.304;2024-03-22T13:57:28;4;4;
84223;PMS5003;74353;51.208;0.304;2024-03-22T13:59:54;2;2;
84223;PMS5003;74353;51.208;0.304;2024-03-22T14:02:21;4;4;
84223;PMS5003;74353;51.208;0.304;2024-03-22T14:04:46;7;3;
84223;PMS5003;74353;51.208;0.304;2024-03-22T14:07:12;2;2;
84223;PMS5003;74353;51.208;0.304;2024-03-22T14:09:38;0;0;
84223;PMS5003;74353;51.208;0.304;2024-03-22T14:12:04;4;4;
84223;PMS5003;74353;51.208;0.304;2024-03-22T14:14:29;1;1;
84223;PMS5003;74353;51.208;0.304;2024-03-22T14:16:57;3;3;
84223;PMS5003;74353;51.208;0.304;2024-03-22T14:19:24;2;2;
84223;PMS5003;74353;51.208;0.304;2024-03-22T14:21:49;1;1;
84223;PMS5003;74353;51.208;0.304;2024-03-22T14:24:17;6;6;
84223;PMS5003;74353;51.208;0.304;2024-03-22T14:26:43;4;4;
84223;PMS5003;74353;51.208;0.304;2024-03-22T14:29:09;1;1;
84223;PMS5003;74353;51.208;0.304;2024-03-22T14:31:37;0;0;
84223;PMS5003;74353;51.208;0.304;2024-03-22T14:34:02;2;2;
84223;PMS5003;74353;51.208;0.304;2024-03-22T14:36:28;2;2;
84223;PMS5003;74353;51.208;0.304;2024-03-22T14:38:53;0;0;
84223;PMS5003;74353;51.208;0.304;2024-03-22T14:41:21;6;6;
84223;PMS5003;74353;51.208;0.304;2024-03-22T14:43:49;2;2;
84223;PMS5003;74353;51.208;0.304;2024-03-22T14:46:15;7;3;
84223;PMS5003;74353;51.208;0.304;2024-03-22T14:48:40;7;7;
84223;PMS5003;74353;51.208;0.304;2024-03-22T14:51:08;4;4;
84223;PMS5003;74353;51.208;0.304;2024-03-22T14:53:34;6;5;
84223;PMS5003;74353;51.208;0.304;2024-03-22T14:56:00;4;4;
84223;PMS5003;74353;51.208;0.304;2024-03-22T14:58:26;1;1;
84223;PMS5003;74353;51.208;0.304;2024-03-22T15:00:53;4;4;
84223;PMS5003;74353;51.208;0.304;2024-03-22T15:03:18;6;5;
84223;PMS5003;74353;51.208;0.304;2024-03-22T15:05:44;6;6;
84223;PMS5003;74353;51.208;0.304;2024-03-22T15:08:12;4;4;
84223;PMS5003;74353;51.208;0.304;2024-03-22T15:10:37;4;4;
84223;PMS5003;74353;51.208;0.304;2024-03-22T15:13:04;2;2;
84223;PMS5003;74353;51.208;0.304;2024-03-22T15:15:29;7;7;
84223;PMS5003;74353;51.208;0.304;2024-03-22T15:17:56;6;6;
84223;PMS5003;74353;51.208;0.304;2024-03-22T15:20:24;3;3;
84223;PMS5003;74353;51.208;0.304;2024-03-22T15:22:51;2;2;
84223;PMS5003;74353;51.208;0.304;2024-03-22T15:25:17;11;9;
84223;PMS5003;74353;51.208;0.304;2024-03-22T15:27:43;5;5;
84223;PMS5003;74353;51.208;0.304;2024-03-22T15:30:11;6;6;
84223;PMS5003;74353;51.208;0.304;2024-03-22T15:32:37;7;7;
84223;PMS5003;74353;51.208;0.304;2024-03-22T15:35:07;1;1;
84223;PMS5003;74353;51.208;0.304;2024-03-22T15:37:34;6;6;
84223;PMS5003;74353;51.208;0.304;2024-03-22T15:39:59;5;3;
84223;PMS5003;74353;51.208;0.304;2024-03-22T15:42:27;6;6;
84223;PMS5003;74353;51.208;0.304;2024-03-22T15:44:53;9;7;
84223;PMS5003;74353;51.208;0.304;2024-03-22T15:47:19;7;5;
84223;PMS5003;74353;51.208;0.304;2024-03-22T15:49:44;5;5;
84223;PMS5003;74353;51.208;0.304;2024-03-22T15:52:09;5;5;
84223;PMS5003;74353;51.208;0.304;2024-03-22T15:54:35;7;5;
84223;PMS5003;74353;51.208;0.304;2024-03-22T15:57:02;6;6;
84223;PMS5003;74353;51.208;0.304;2024-03-22T15:59:28;2;2;
84223;PMS5003;74353;51.208;0.304;2024-03-22T16:01:53;3;3;
84223;PMS5003;74353;51.208;0.304;2024-03-22T16:04:22;5;5;
84223;PMS5003;74353;51.208;0.304;2024-03-22T16:06:47;6;6;
84223;PMS5003;74353;51.208;0.304;2024-03-22T16:09:13;9;5;
84223;PMS5003;74353;51.208;0.304;2024-03-22T16:11:41;2;2;
84223;PMS5003;74353;51.208;0.304;2024-03-22T16:14:07;8;8;
84223;PMS5003;74353;51.208;0.304;2024-03-22T16:16:32;11;10;
84223;PMS5003;74353;51.208;0.304;2024-03-22T16:19:04;10;7;
84223;PMS5003;74353;51.208;0.304;2024-03-22T16:21:26;8;3;
84223;PMS5003;74353;51.208;0.304;2024-03-22T16:23:53;1;1;
84223;PMS5003;74353;51.208;0.304;2024-03-22T16:26:21;6;6;
84223;PMS5003;74353;51.208;0.304;2024-03-22T16:28:46;4;4;
84223;PMS5003;74353;51.208;0.304;2024-03-22T16:31:14;7;7;